Airport ICAO


00:46 UTC

1°C

Broken clouds


An affordable passengers' Moving Map for your aircraft. Made for the iPad and the iPhone
More information here

LFLB Aix Les Bains


Chambery FRANCE   VFR


METAR LFLB 230030Z AUTO 34008KT 300V360 6000 BKN026 BKN044 BKN140 01/M04 Q1010 0h16min

TAF LFLB 221700Z 2218/2318 35010KT 8000 SCT030 BKN045 BECMG 2309/2312 CAVOK 7h46min





NOTAMS

OPEN